Time;durP1;ratioP1;P1;durP2;ratioP2;P2;SDS_P1;SDS_P2;PMS_P1;PMS_P2;Temp;Humidity;BMP_temperature;BMP_pressure;BME280_temperature;BME280_humidity;BME280_pressure;Samples;Min_cycle;Max_cycle;Signal;HPM_P1;HPM_P2
2023/07/25 00:00:47;;;;;;;8.30;4.53;;;;;;;12.96;100.00;100147.53;5126797;27;20050;-81
2023/07/25 00:03:13;;;;;;;10.02;5.63;;;;;;;12.92;100.00;100141.72;5119838;27;20023;-81
2023/07/25 00:05:39;;;;;;;7.85;4.80;;;;;;;12.85;100.00;100138.09;5088560;27;20107;-81
2023/07/25 00:08:04;;;;;;;9.10;4.85;;;;;;;12.85;100.00;100140.72;5073266;28;20031;-80
2023/07/25 00:10:33;;;;;;;8.05;4.60;;;;;;;12.85;100.00;100136.22;5105557;27;20087;-80
2023/07/25 00:12:59;;;;;;;9.25;4.90;;;;;;;12.84;100.00;100134.59;5086356;28;20510;-81
2023/07/25 00:15:24;;;;;;;8.45;5.03;;;;;;;12.79;100.00;100139.56;5104296;27;20086;-81
2023/07/25 00:17:50;;;;;;;7.53;4.72;;;;;;;12.76;100.00;100140.72;5080116;28;20102;-81
2023/07/25 00:20:16;;;;;;;9.85;4.90;;;;;;;12.69;100.00;100129.13;5077881;28;20044;-81
2023/07/25 00:22:42;;;;;;;8.02;4.80;;;;;;;12.65;100.00;100123.34;5077921;28;20085;-81
2023/07/25 00:25:08;;;;;;;7.43;4.75;;;;;;;12.66;100.00;100132.13;5087902;28;20519;-81
2023/07/25 00:27:34;;;;;;;6.30;4.07;;;;;;;12.68;100.00;100124.81;5060316;28;20060;-81
2023/07/25 00:30:01;;;;;;;8.00;4.45;;;;;;;12.74;100.00;100134.75;5080397;28;20489;-81
2023/07/25 00:32:27;;;;;;;10.63;4.68;;;;;;;12.79;100.00;100139.56;5041824;28;20081;-81
2023/07/25 00:34:53;;;;;;;7.55;5.00;;;;;;;12.84;100.00;100129.28;5045686;28;20040;-81
2023/07/25 00:37:19;;;;;;;7.68;4.57;;;;;;;12.86;100.00;100123.81;5078171;28;20291;-81
2023/07/25 00:39:45;;;;;;;7.38;4.57;;;;;;;12.88;100.00;100127.94;5056501;28;20027;-81
2023/07/25 00:42:11;;;;;;;9.15;4.93;;;;;;;12.93;100.00;100131.94;5018119;28;20105;-81
2023/07/25 00:44:37;;;;;;;8.13;4.90;;;;;;;12.94;100.00;100129.13;5079454;28;20043;-81
2023/07/25 00:47:03;;;;;;;10.30;4.85;;;;;;;12.94;100.00;100134.41;5059141;28;20028;-81
2023/07/25 00:49:31;;;;;;;9.43;4.68;;;;;;;13.00;100.00;100131.09;5059662;28;20123;-81
2023/07/25 00:51:57;;;;;;;8.68;4.75;;;;;;;12.99;100.00;100123.31;5082507;28;20031;-81
2023/07/25 00:54:22;;;;;;;11.73;4.65;;;;;;;12.98;100.00;100130.44;5081779;28;20020;-81
2023/07/25 00:56:48;;;;;;;8.52;4.32;;;;;;;12.98;100.00;100135.72;5081310;28;20385;-81
2023/07/25 00:59:14;;;;;;;7.35;4.93;;;;;;;12.98;100.00;100135.72;5084894;28;20315;-81
2023/07/25 01:01:39;;;;;;;8.27;4.72;;;;;;;12.96;100.00;100135.09;5082329;28;20035;-81
2023/07/25 01:04:05;;;;;;;8.25;4.55;;;;;;;12.97;100.00;100135.91;5089376;28;20052;-81
2023/07/25 01:06:33;;;;;;;11.40;4.93;;;;;;;13.01;100.00;100129.28;5079108;28;20028;-81
2023/07/25 01:08:58;;;;;;;11.10;3.95;;;;;;;13.06;100.00;100128.78;5046502;28;20470;-81
2023/07/25 01:11:24;;;;;;;9.63;4.85;;;;;;;13.07;100.00;100123.28;5067498;28;20032;-81
2023/07/25 01:13:50;;;;;;;14.38;4.93;;;;;;;13.05;100.00;100132.41;5074576;28;20722;-81
2023/07/25 01:16:35;;;;;;;6.53;4.28;;;;;;;13.02;100.00;100118.50;5072815;28;20353;-81
2023/07/25 01:19:01;;;;;;;8.77;4.25;;;;;;;12.98;100.00;100119.81;5067059;28;20482;-81
2023/07/25 01:21:27;;;;;;;7.50;4.10;;;;;;;13.01;100.00;100122.13;5082325;28;20084;-81
2023/07/25 01:24:01;;;;;;;7.32;4.32;;;;;;;13.04;100.00;100120.97;5070999;28;20044;-80
2023/07/25 01:26:27;;;;;;;8.73;4.05;;;;;;;13.00;100.00;100125.78;5073645;28;20086;-81
2023/07/25 01:28:53;;;;;;;6.13;3.80;;;;;;;12.97;100.00;100128.78;5071151;28;20586;-81
2023/07/25 01:31:19;;;;;;;5.65;3.72;;;;;;;12.97;100.00;100131.44;5062291;28;20040;-81
2023/07/25 01:33:45;;;;;;;10.43;4.65;;;;;;;12.96;100.00;100132.44;5051506;28;20470;-81
2023/07/25 01:36:11;;;;;;;9.82;4.75;;;;;;;12.96;100.00;100126.28;5079299;28;20033;-81
2023/07/25 01:38:37;;;;;;;7.32;4.40;;;;;;;12.88;100.00;100124.47;5082120;28;20113;-81
2023/07/25 01:41:03;;;;;;;6.43;3.85;;;;;;;12.80;100.00;100119.19;5053203;28;20047;-81
2023/07/25 01:43:28;;;;;;;9.73;3.95;;;;;;;12.80;100.00;100121.81;5072128;28;20067;-81
2023/07/25 01:45:54;;;;;;;9.52;4.55;;;;;;;12.79;100.00;100123.66;5058202;28;20044;-81
2023/07/25 01:48:20;;;;;;;7.72;4.25;;;;;;;12.83;100.00;100118.84;5064439;28;20609;-81
2023/07/25 01:50:46;;;;;;;8.30;4.38;;;;;;;12.84;100.00;100113.38;5068037;28;20036;-81
2023/07/25 01:53:12;;;;;;;8.50;4.18;;;;;;;12.88;100.00;100119.19;5058773;28;20371;-81
2023/07/25 01:55:37;;;;;;;8.60;4.60;;;;;;;12.86;100.00;100121.16;5062757;28;20505;-71
2023/07/25 01:58:03;;;;;;;7.30;4.40;;;;;;;12.82;100.00;100117.19;5064320;28;20047;-81
2023/07/25 02:00:29;;;;;;;7.32;4.93;;;;;;;12.80;100.00;100122.66;5047036;28;20035;-81
2023/07/25 02:02:55;;;;;;;5.32;4.30;;;;;;;12.80;100.00;100113.88;5069423;28;20033;-81
2023/07/25 02:05:20;;;;;;;7.60;4.47;;;;;;;12.78;100.00;100114.88;5066535;28;20036;-81
2023/07/25 02:07:46;;;;;;;15.45;4.63;;;;;;;12.80;100.00;100114.72;5045847;28;20073;-81
2023/07/25 02:10:14;;;;;;;7.85;4.45;;;;;;;12.77;100.00;100112.41;5063266;28;20032;-81
2023/07/25 02:12:40;;;;;;;7.47;4.57;;;;;;;12.76;100.00;100114.22;5069279;28;20036;-81
2023/07/25 02:15:06;;;;;;;8.20;4.32;;;;;;;12.78;100.00;100112.22;5067357;28;20943;-81
2023/07/25 02:17:32;;;;;;;6.63;4.05;;;;;;;12.82;100.00;100111.88;5061900;28;20044;-81
2023/07/25 02:19:58;;;;;;;6.72;4.35;;;;;;;12.84;100.00;100113.38;5074618;28;20042;-80
2023/07/25 02:22:24;;;;;;;5.70;3.90;;;;;;;12.85;100.00;100115.00;5071797;28;20036;-81
2023/07/25 02:24:49;;;;;;;6.57;4.00;;;;;;;12.87;100.00;100117.50;5057772;28;20043;-81
2023/07/25 02:27:15;;;;;;;5.93;3.55;;;;;;;12.85;100.00;100111.56;5072218;28;20042;-81
2023/07/25 02:29:41;;;;;;;11.93;3.92;;;;;;;12.83;100.00;100118.84;5073349;28;20028;-81
2023/07/25 02:32:07;;;;;;;7.63;3.50;;;;;;;12.82;100.00;100119.84;5089382;28;20028;-81
2023/07/25 02:34:33;;;;;;;8.18;3.92;;;;;;;12.80;100.00;100119.19;5087626;28;20062;-81
2023/07/25 02:36:58;;;;;;;8.90;4.47;;;;;;;12.83;100.00;100122.34;5080425;28;20028;-81
2023/07/25 02:39:24;;;;;;;7.82;4.00;;;;;;;12.85;100.00;100114.22;5062009;28;20033;-80
2023/07/25 02:41:50;;;;;;;11.10;3.72;;;;;;;12.87;100.00;100122.81;5076008;28;20036;-81
2023/07/25 02:44:16;;;;;;;7.60;3.75;;;;;;;12.90;100.00;100119.81;5061968;28;20037;-81
2023/07/25 02:46:41;;;;;;;6.25;3.97;;;;;;;12.90;100.00;100118.00;5076465;28;20040;-81
2023/07/25 02:49:07;;;;;;;6.88;3.72;;;;;;;12.89;100.00;100119.00;5065326;28;20024;-81
2023/07/25 02:51:33;;;;;;;7.85;3.63;;;;;;;12.89;100.00;100120.81;5069185;28;20024;-80
2023/07/25 02:53:59;;;;;;;11.45;4.15;;;;;;;12.86;100.00;100121.16;5082043;28;20047;-80
2023/07/25 02:56:26;;;;;;;9.00;3.88;;;;;;;12.82;100.00;100122.50;5078855;28;20032;-80
2023/07/25 02:58:52;;;;;;;8.75;4.05;;;;;;;12.81;100.00;100121.66;5084444;28;20035;-81
2023/07/25 03:01:18;;;;;;;4.63;3.60;;;;;;;12.80;100.00;100121.81;5077501;28;20028;-81
2023/07/25 03:03:44;;;;;;;5.30;3.80;;;;;;;12.78;100.00;100111.38;5054749;28;20047;-81
2023/07/25 03:06:09;;;;;;;4.97;3.78;;;;;;;12.76;100.00;100108.06;5079849;28;20024;-81
2023/07/25 03:08:35;;;;;;;7.35;3.65;;;;;;;12.69;100.00;100110.59;5079133;28;20489;-81
2023/07/25 03:11:01;;;;;;;9.05;3.80;;;;;;;12.66;100.00;100108.25;5072431;28;20040;-81
2023/07/25 03:13:27;;;;;;;14.63;3.33;;;;;;;12.64;100.00;100112.91;5075334;28;20044;-81
2023/07/25 03:15:52;;;;;;;7.95;3.53;;;;;;;12.60;100.00;100104.44;5060579;28;20036;-81
2023/07/25 03:18:18;;;;;;;6.82;3.28;;;;;;;12.58;100.00;100102.94;5115815;27;20043;-81
2023/07/25 03:20:44;;;;;;;5.88;3.60;;;;;;;12.55;100.00;100104.09;5105379;27;20027;-81
2023/07/25 03:23:10;;;;;;;5.75;3.28;;;;;;;12.51;100.00;100106.28;5101869;27;20043;-81
2023/07/25 03:25:35;;;;;;;7.07;3.25;;;;;;;12.50;100.00;100101.94;5120082;27;20483;-81
2023/07/25 03:28:01;;;;;;;5.45;2.83;;;;;;;12.51;100.00;100110.72;5081355;27;20039;-80
2023/07/25 03:30:27;;;;;;;5.50;3.00;;;;;;;12.53;100.00;100111.41;5106868;27;20528;-81
2023/07/25 03:32:53;;;;;;;4.85;2.78;;;;;;;12.53;100.00;100119.38;5008083;28;20031;-81
2023/07/25 03:35:19;;;;;;;8.25;3.47;;;;;;;12.49;100.00;100112.72;5104642;27;20122;-81
2023/07/25 03:37:44;;;;;;;7.50;3.80;;;;;;;12.41;100.00;100110.88;5092945;27;20027;-81
2023/07/25 03:40:11;;;;;;;5.95;3.50;;;;;;;12.35;100.00;100114.19;5075898;28;20028;-81
2023/07/25 03:42:36;;;;;;;5.65;2.80;;;;;;;12.31;100.00;100111.03;5085928;27;20044;-81
2023/07/25 03:45:02;;;;;;;8.77;3.22;;;;;;;12.33;100.00;100108.22;5021381;27;20078;-81
2023/07/25 03:47:28;;;;;;;6.95;3.40;;;;;;;12.33;100.00;100110.88;5110254;27;20023;-81
2023/07/25 03:49:54;;;;;;;7.43;3.00;;;;;;;12.35;100.00;100103.59;5093532;28;20060;-81
2023/07/25 03:52:19;;;;;;;8.40;3.13;;;;;;;12.33;100.00;100114.38;5096028;27;20553;-81
2023/07/25 03:54:45;;;;;;;6.18;3.35;;;;;;;12.29;100.00;100118.34;5124232;27;20027;-81
2023/07/25 03:57:11;;;;;;;5.82;3.47;;;;;;;12.24;100.00;100110.03;5128419;27;20026;-81
2023/07/25 03:59:37;;;;;;;5.93;3.60;;;;;;;12.20;100.00;100114.03;5090553;27;20063;-81
2023/07/25 04:02:03;;;;;;;7.32;3.70;;;;;;;12.20;100.00;100112.19;5084920;28;20092;-81
2023/07/25 04:04:28;;;;;;;7.90;4.18;;;;;;;12.20;100.00;100109.53;5088528;28;20046;-81
2023/07/25 04:06:54;;;;;;;6.28;3.35;;;;;;;12.19;100.00;100113.19;5103925;28;20039;-81
2023/07/25 04:09:20;;;;;;;8.20;3.15;;;;;;;12.18;100.00;100121.31;5094947;28;20056;-81
2023/07/25 04:11:46;;;;;;;9.95;4.13;;;;;;;12.13;100.00;100108.53;5104784;28;20528;-81
2023/07/25 04:14:12;;;;;;;6.35;3.30;;;;;;;12.14;100.00;100113.69;5111498;28;20038;-81
2023/07/25 04:16:38;;;;;;;3.60;2.63;;;;;;;12.14;100.00;100121.63;5095288;28;20035;-81
2023/07/25 04:19:03;;;;;;;6.47;3.15;;;;;;;12.09;100.00;100120.47;5072053;28;20067;-81
2023/07/25 04:21:29;;;;;;;7.18;3.33;;;;;;;12.04;100.00;100116.44;5059400;28;20041;-81
2023/07/25 04:23:55;;;;;;;5.35;3.88;;;;;;;12.04;100.00;100119.09;5083842;28;20485;-81
2023/07/25 04:26:21;;;;;;;5.45;4.00;;;;;;;12.05;100.00;100114.63;5088331;28;20051;-81
2023/07/25 04:28:48;;;;;;;6.57;3.47;;;;;;;12.07;100.00;100115.28;5074405;28;20041;-80
2023/07/25 04:31:15;;;;;;;9.73;3.65;;;;;;;12.10;100.00;100119.47;5063448;28;20077;-81
2023/07/25 04:33:42;;;;;;;5.88;3.67;;;;;;;12.11;100.00;100121.97;5076121;28;20036;-81
2023/07/25 04:36:07;;;;;;;8.10;3.45;;;;;;;12.13;100.00;100116.50;5066631;28;20039;-81
2023/07/25 04:38:33;;;;;;;7.28;3.83;;;;;;;12.14;100.00;100129.56;5087112;28;20021;-81
2023/07/25 04:40:59;;;;;;;6.57;3.72;;;;;;;12.13;100.00;100124.44;5075036;28;20497;-81
2023/07/25 04:43:25;;;;;;;8.40;3.95;;;;;;;12.11;100.00;100124.59;5055850;28;20038;-81
2023/07/25 04:45:51;;;;;;;6.47;3.67;;;;;;;12.08;100.00;100124.09;5076346;28;20551;-81
2023/07/25 04:48:16;;;;;;;7.10;4.30;;;;;;;12.09;100.00;100123.94;5091464;28;20035;-81
2023/07/25 04:50:42;;;;;;;5.05;3.40;;;;;;;12.11;100.00;100123.78;5092234;28;20393;-81
2023/07/25 04:53:08;;;;;;;6.47;3.65;;;;;;;12.12;100.00;100123.59;5072277;28;20028;-81
2023/07/25 04:55:34;;;;;;;8.95;3.90;;;;;;;12.13;100.00;100125.28;5085547;28;20160;-80
2023/07/25 04:58:00;;;;;;;9.45;4.10;;;;;;;12.13;100.00;100125.28;5080154;28;20024;-81
2023/07/25 05:00:25;;;;;;;7.40;4.07;;;;;;;12.13;100.00;100124.44;5074053;28;20028;-81
2023/07/25 05:02:52;;;;;;;6.90;4.05;;;;;;;12.14;100.00;100121.63;5069178;28;20072;-81
2023/07/25 05:05:17;;;;;;;8.60;4.20;;;;;;;12.11;100.00;100126.41;5091169;28;20115;-81
2023/07/25 05:07:43;;;;;;;8.27;4.32;;;;;;;12.09;100.00;100117.81;5061121;28;20181;-80
2023/07/25 05:10:09;;;;;;;9.27;4.28;;;;;;;12.00;100.00;100127.53;5085222;28;20028;-80
2023/07/25 05:12:35;;;;;;;13.00;4.68;;;;;;;11.95;100.00;100133.31;5086016;28;20102;-81
2023/07/25 05:15:00;;;;;;;6.75;3.85;;;;;;;11.89;100.00;100132.13;5018890;28;20035;-81
2023/07/25 05:17:26;;;;;;;7.57;4.15;;;;;;;11.84;100.00;100131.78;5084987;28;20084;-81
2023/07/25 05:19:52;;;;;;;6.63;4.00;;;;;;;11.81;100.00;100132.09;5075091;28;20055;-81
2023/07/25 05:22:18;;;;;;;6.57;4.40;;;;;;;11.81;100.00;100140.06;5070293;28;20111;-81
2023/07/25 05:24:43;;;;;;;8.65;4.15;;;;;;;11.84;100.00;100136.25;5088628;28;20035;-81
2023/07/25 05:27:09;;;;;;;6.45;4.22;;;;;;;11.85;100.00;100140.56;5090771;28;20032;-81
2023/07/25 05:29:35;;;;;;;6.30;4.32;;;;;;;11.87;100.00;100133.28;5070664;28;20060;-81
2023/07/25 05:32:01;;;;;;;9.98;4.90;;;;;;;11.89;100.00;100136.59;5072908;28;20058;-81
2023/07/25 05:34:26;;;;;;;7.97;3.88;;;;;;;11.91;100.00;100142.56;5090941;28;20036;-81
2023/07/25 05:36:52;;;;;;;10.52;4.18;;;;;;;11.93;100.00;100140.56;5083763;28;20115;-81
2023/07/25 05:39:18;;;;;;;8.02;4.85;;;;;;;11.95;100.00;100143.91;5077885;28;20033;-81
2023/07/25 05:41:44;;;;;;;7.38;4.13;;;;;;;11.93;100.00;100140.56;5061685;28;20025;-81
2023/07/25 05:44:09;;;;;;;15.68;4.97;;;;;;;11.96;100.00;100142.91;5062057;28;20040;-81
2023/07/25 05:46:35;;;;;;;10.05;4.35;;;;;;;11.97;100.00;100147.22;5070958;28;20422;-81
2023/07/25 05:49:01;;;;;;;7.00;4.70;;;;;;;12.01;100.00;100147.72;5080828;28;20028;-81
2023/07/25 05:51:26;;;;;;;12.18;4.43;;;;;;;12.05;100.00;100146.41;5062654;28;20036;-81
2023/07/25 05:53:52;;;;;;;7.53;4.50;;;;;;;12.09;100.00;100150.41;5074599;28;20043;-81
2023/07/25 05:56:18;;;;;;;8.95;5.15;;;;;;;12.14;100.00;100150.78;5071933;28;20050;-80
2023/07/25 05:58:43;;;;;;;8.55;4.63;;;;;;;12.19;100.00;100160.88;5086936;28;20055;-81
2023/07/25 06:01:09;;;;;;;7.30;5.13;;;;;;;12.22;100.00;100157.06;5090389;28;20077;-80
2023/07/25 06:03:35;;;;;;;8.48;4.07;;;;;;;12.23;100.00;100154.25;5084052;28;20090;-80
2023/07/25 06:06:01;;;;;;;9.60;4.57;;;;;;;12.27;100.00;100158.25;5079701;28;20028;-81
2023/07/25 06:08:26;;;;;;;7.45;4.53;;;;;;;12.32;100.00;100152.47;5073796;28;20043;-80
2023/07/25 06:10:52;;;;;;;8.45;4.75;;;;;;;12.34;100.00;100154.97;5085722;28;20036;-81
2023/07/25 06:13:18;;;;;;;13.10;5.38;;;;;;;12.36;100.00;100156.44;5081894;28;20032;-81
2023/07/25 06:15:44;;;;;;;11.90;5.85;;;;;;;12.42;100.00;100162.09;5061919;28;20040;-81
2023/07/25 06:18:09;;;;;;;8.02;5.00;;;;;;;12.37;100.00;100166.06;5105573;27;20039;-80
2023/07/25 06:20:35;;;;;;;12.20;4.68;;;;;;;12.39;100.00;100164.06;5067946;27;20115;-81
2023/07/25 06:23:01;;;;;;;7.15;4.15;;;;;;;12.43;100.00;100166.38;5116013;27;20035;-80
2023/07/25 06:25:27;;;;;;;10.90;4.80;;;;;;;12.52;100.00;100168.06;5125579;27;20514;-81
2023/07/25 06:27:53;;;;;;;8.18;4.60;;;;;;;12.58;100.00;100171.88;5125745;27;20492;-81
2023/07/25 06:30:20;;;;;;;10.75;5.07;;;;;;;12.63;100.00;100172.19;5126535;27;20062;-81
2023/07/25 06:32:46;;;;;;;7.63;4.50;;;;;;;12.67;100.00;100173.56;5092835;27;20475;-81
2023/07/25 06:35:12;;;;;;;8.20;5.00;;;;;;;12.72;100.00;100178.34;5108029;27;20023;-81
2023/07/25 06:37:38;;;;;;;9.07;4.45;;;;;;;12.72;100.00;100179.19;5131158;27;20083;-81
2023/07/25 06:40:05;;;;;;;6.45;4.55;;;;;;;12.76;100.00;100180.50;5095087;27;20043;-81
2023/07/25 06:42:31;;;;;;;6.97;4.68;;;;;;;12.80;100.00;100173.06;5109558;28;20114;-81
2023/07/25 06:44:58;;;;;;;7.50;4.72;;;;;;;12.81;100.00;100179.16;5094889;28;20079;-81
2023/07/25 06:47:24;;;;;;;9.55;4.72;;;;;;;12.82;100.00;100183.50;5112341;27;20035;-81
2023/07/25 06:49:50;;;;;;;9.77;4.78;;;;;;;12.84;100.00;100184.16;5124780;27;20106;-81
2023/07/25 06:52:16;;;;;;;6.75;4.10;;;;;;;12.85;100.00;100186.63;5096301;27;20461;-81
2023/07/25 06:54:43;;;;;;;11.80;5.40;;;;;;;12.92;100.00;100186.81;5094086;27;20039;-81
2023/07/25 06:57:09;;;;;;;8.55;4.45;;;;;;;12.95;100.00;100185.66;5087542;27;20035;-81
2023/07/25 06:59:35;;;;;;;7.32;4.07;;;;;;;12.98;100.00;100194.09;5093579;27;20507;-81
2023/07/25 07:02:00;;;;;;;15.50;4.10;;;;;;;13.05;100.00;100190.78;5104908;28;20039;-81
2023/07/25 07:04:26;;;;;;;7.15;4.13;;;;;;;13.12;100.00;100186.47;5131238;27;20116;-81
2023/07/25 07:06:52;;;;;;;6.78;3.80;;;;;;;13.12;100.00;100189.94;5101583;27;20031;-81
2023/07/25 07:09:17;;;;;;;7.10;4.18;;;;;;;13.15;100.00;100186.13;5090342;27;20027;-80
2023/07/25 07:11:43;;;;;;;7.03;3.80;;;;;;;13.18;100.00;100184.97;5093485;28;20035;-81
2023/07/25 07:14:09;;;;;;;8.65;3.35;;;;;;;13.23;100.00;100188.78;5113748;27;20027;-81
2023/07/25 07:16:35;;;;;;;7.20;3.45;;;;;;;13.27;100.00;100189.25;5106057;28;20031;-81
2023/07/25 07:19:01;;;;;;;5.80;3.63;;;;;;;13.36;100.00;100190.09;5007195;28;20032;-81
2023/07/25 07:21:27;;;;;;;7.03;3.47;;;;;;;13.41;100.00;100185.06;5068025;28;20051;-81
2023/07/25 07:23:53;;;;;;;4.93;3.33;;;;;;;13.48;100.00;100180.75;5071098;28;20032;-81
2023/07/25 07:26:18;;;;;;;5.97;3.17;;;;;;;13.56;100.00;100181.75;5061043;28;20035;-81
2023/07/25 07:28:45;;;;;;;5.03;2.80;;;;;;;13.58;100.00;100182.44;5064116;28;20032;-81
2023/07/25 07:31:12;;;;;;;7.22;2.95;;;;;;;13.67;100.00;100178.75;5081983;28;20024;-81
2023/07/25 07:33:38;;;;;;;8.68;3.45;;;;;;;13.87;100.00;100179.16;5069765;28;20031;-81
2023/07/25 07:36:05;;;;;;;6.82;3.55;;;;;;;14.05;100.00;100177.28;5076772;28;20038;-81
2023/07/25 07:38:31;;;;;;;8.88;3.22;;;;;;;14.22;100.00;100178.00;5067670;28;20032;-81
2023/07/25 07:40:56;;;;;;;6.97;2.95;;;;;;;14.45;100.00;100182.50;5089397;28;20115;-81
2023/07/25 07:43:22;;;;;;;4.07;2.35;;;;;;;14.65;100.00;100177.56;5069509;28;20115;-81
2023/07/25 07:45:49;;;;;;;7.32;3.00;;;;;;;14.87;100.00;100183.88;5053110;28;20115;-81
2023/07/25 07:48:16;;;;;;;5.32;3.00;;;;;;;15.09;100.00;100186.69;5069350;28;20489;-81
2023/07/25 07:50:43;;;;;;;5.38;3.13;;;;;;;15.28;100.00;100191.66;4984838;28;20043;-81
2023/07/25 07:53:09;;;;;;;7.90;3.80;;;;;;;15.36;100.00;100187.09;5072711;28;20039;-81
2023/07/25 07:55:35;;;;;;;7.63;3.17;;;;;;;15.45;100.00;100182.50;5071510;28;20033;-81
2023/07/25 07:58:02;;;;;;;7.38;3.25;;;;;;;15.52;100.00;100181.78;5081303;28;20033;-81
2023/07/25 08:00:28;;;;;;;5.80;2.83;;;;;;;15.54;100.00;100183.25;5062518;28;20486;-81
2023/07/25 08:02:53;;;;;;;6.80;3.10;;;;;;;15.54;100.00;100179.75;5089599;28;20057;-81
2023/07/25 08:05:19;;;;;;;5.45;2.78;;;;;;;15.56;100.00;100183.06;5082658;28;20032;-81
2023/07/25 08:07:46;;;;;;;5.85;2.60;;;;;;;15.61;100.00;100186.00;5079937;28;20166;-81
2023/07/25 08:10:12;;;;;;;5.85;2.05;;;;;;;15.59;100.00;100186.19;5068695;28;20035;-81
2023/07/25 08:12:37;;;;;;;4.13;2.67;;;;;;;15.57;100.00;100190.03;5035108;28;20032;-81
2023/07/25 08:15:04;;;;;;;5.47;2.83;;;;;;;15.53;100.00;100194.91;5051853;28;20036;-81
2023/07/25 08:17:30;;;;;;;6.78;2.88;;;;;;;15.49;100.00;100190.97;5058536;28;20130;-81
2023/07/25 08:19:55;;;;;;;5.45;2.25;;;;;;;15.51;100.00;100186.28;5083549;28;20043;-81
2023/07/25 08:22:21;;;;;;;3.65;2.53;;;;;;;15.58;100.00;100202.34;5104578;28;20036;-81
2023/07/25 08:24:47;;;;;;;4.93;2.40;;;;;;;15.61;100.00;100192.16;5109955;28;20034;-81
2023/07/25 08:27:13;;;;;;;4.03;2.33;;;;;;;15.59;100.00;100198.69;5075524;28;20059;-81
2023/07/25 08:29:40;;;;;;;4.10;2.30;;;;;;;15.64;100.00;100190.94;5072592;28;20032;-81
2023/07/25 08:32:07;;;;;;;3.25;2.50;;;;;;;15.60;100.00;100193.19;5090849;28;20059;-81
2023/07/25 08:34:33;;;;;;;2.65;2.45;;;;;;;15.59;100.00;100204.00;5090142;28;20038;-81
2023/07/25 08:36:59;;;;;;;6.10;2.25;;;;;;;15.57;100.00;100193.53;5109725;28;20039;-81
2023/07/25 08:39:24;;;;;;;6.88;2.30;;;;;;;15.58;100.00;100197.00;5087874;28;20030;-81
2023/07/25 08:41:52;;;;;;;3.25;2.00;;;;;;;15.67;100.00;100195.09;5074232;28;20040;-81
2023/07/25 08:44:21;;;;;;;7.80;2.17;;;;;;;15.71;100.00;100191.88;5070191;28;20079;-81
2023/07/25 08:46:50;;;;;;;7.70;2.83;;;;;;;15.73;100.00;100189.03;5087078;28;20039;-81
2023/07/25 08:49:17;;;;;;;3.65;2.15;;;;;;;15.74;100.00;100188.00;5105644;28;20476;-81
2023/07/25 08:51:44;;;;;;;4.43;2.85;;;;;;;15.80;100.00;100189.94;5091651;28;20063;-81
2023/07/25 08:54:28;;;;;;;3.97;2.63;;;;;;;15.78;100.00;100181.31;5090507;28;20393;-81
2023/07/25 08:56:54;;;;;;;7.97;3.05;;;;;;;15.82;100.00;100184.41;5054661;28;20112;-81
2023/07/25 08:59:21;;;;;;;5.60;3.10;;;;;;;15.87;100.00;100174.03;5086612;28;20027;-81
2023/07/25 09:01:47;;;;;;;4.90;3.10;;;;;;;15.92;100.00;100176.97;5074342;28;20156;-81
2023/07/25 09:04:14;;;;;;;5.20;3.45;;;;;;;16.00;100.00;100178.75;5088975;28;20155;-81
2023/07/25 09:06:40;;;;;;;7.95;2.90;;;;;;;16.04;100.00;100174.69;5084621;28;21238;-81
2023/07/25 09:09:07;;;;;;;5.65;3.22;;;;;;;16.15;100.00;100180.53;5072610;28;20028;-81
2023/07/25 09:11:33;;;;;;;5.35;2.90;;;;;;;16.21;100.00;100180.59;5074605;28;20038;-80
2023/07/25 09:14:01;;;;;;;8.45;3.33;;;;;;;16.21;100.00;100174.47;5062142;28;20043;-81
2023/07/25 09:16:27;;;;;;;6.05;3.25;;;;;;;16.20;100.00;100183.47;5090965;28;20474;-81
2023/07/25 09:18:53;;;;;;;5.38;3.05;;;;;;;16.14;100.00;100174.38;5058188;28;20538;-80
2023/07/25 09:21:19;;;;;;;4.95;3.58;;;;;;;16.13;100.00;100178.06;5072020;28;20146;-81
2023/07/25 09:23:56;;;;;;;5.53;3.10;;;;;;;16.25;100.00;100173.06;5055070;28;20036;-81
2023/07/25 09:26:25;;;;;;;4.15;3.05;;;;;;;16.30;100.00;100176.00;5072437;28;20024;-81
2023/07/25 09:28:53;;;;;;;3.45;2.67;;;;;;;16.37;100.00;100173.41;5067279;28;20055;-81
2023/07/25 09:31:20;;;;;;;4.80;3.05;;;;;;;16.46;100.00;100174.09;5063645;28;20032;-81
2023/07/25 09:33:56;;;;;;;6.63;3.40;;;;;;;16.56;100.00;100173.78;5071196;28;20107;-81
2023/07/25 09:36:23;;;;;;;5.90;3.63;;;;;;;16.61;100.00;100160.72;5058122;28;20037;-80
2023/07/25 09:38:54;;;;;;;5.50;3.72;;;;;;;16.53;100.00;100164.31;5068797;28;20032;-81
2023/07/25 09:41:23;;;;;;;6.57;3.60;;;;;;;16.61;100.00;100172.19;5069715;28;20044;-81
2023/07/25 09:43:50;;;;;;;7.05;4.30;;;;;;;16.71;100.00;100171.88;5074252;28;20024;-79
2023/07/25 09:46:16;;;;;;;5.55;3.78;;;;;;;16.84;100.00;100176.50;5067515;28;20035;-81
2023/07/25 09:48:47;;;;;;;7.63;3.70;;;;;;;16.85;100.00;100159.44;5069810;28;20032;-81
2023/07/25 09:51:14;;;;;;;7.45;4.68;;;;;;;16.95;100.00;100166.28;5058992;28;20040;-81
2023/07/25 09:53:44;;;;;;;7.70;4.15;;;;;;;17.09;100.00;100170.75;5070949;28;20034;-81
2023/07/25 09:56:11;;;;;;;6.78;4.60;;;;;;;17.09;100.00;100169.91;5038213;28;20032;-82
2023/07/25 09:58:37;;;;;;;6.72;4.95;;;;;;;17.05;100.00;100168.63;5068307;28;20039;-81
2023/07/25 10:01:04;;;;;;;7.63;4.75;;;;;;;17.08;100.00;100166.44;5035634;28;20478;-81
2023/07/25 10:03:30;;;;;;;6.88;5.18;;;;;;;17.22;100.00;100170.03;5053624;28;20035;-81
2023/07/25 10:05:57;;;;;;;7.80;4.93;;;;;;;17.26;100.00;100167.81;5066766;28;20569;-81
2023/07/25 10:08:26;;;;;;;8.52;5.35;;;;;;;17.27;100.00;100164.09;5064816;28;20128;-81
2023/07/25 10:10:55;;;;;;;7.85;5.18;;;;;;;17.25;100.00;100176.00;5066186;28;20112;-81
2023/07/25 10:13:21;;;;;;;7.65;5.05;;;;;;;17.20;100.00;100163.25;5054542;28;20050;-81
2023/07/25 10:15:49;;;;;;;7.03;5.05;;;;;;;17.30;100.00;100171.72;5062318;28;20381;-81
2023/07/25 10:18:26;;;;;;;7.55;5.03;;;;;;;17.44;100.00;100171.81;5094887;27;20040;-81
2023/07/25 10:20:54;;;;;;;6.70;4.85;;;;;;;17.43;100.00;100165.63;5092363;28;20579;-81
2023/07/25 10:23:33;;;;;;;6.50;4.32;;;;;;;17.49;100.00;100166.69;5077481;28;20031;-81
2023/07/25 10:26:19;;;;;;;6.28;4.97;;;;;;;17.58;100.00;100162.81;5093752;27;20451;-81
2023/07/25 10:28:46;;;;;;;7.03;5.07;;;;;;;17.55;100.00;100163.22;5098794;28;20119;-81
2023/07/25 10:31:33;;;;;;;7.47;5.13;;;;;;;17.52;100.00;100170.81;5094661;28;20024;-81
2023/07/25 10:34:00;;;;;;;5.85;4.68;;;;;;;17.38;100.00;100164.56;5069576;28;20036;-82
2023/07/25 10:36:26;;;;;;;6.78;4.75;;;;;;;17.41;100.00;100166.84;5034234;28;20031;-81
2023/07/25 10:39:05;;;;;;;7.50;4.63;;;;;;;17.53;100.00;100164.44;5093882;28;20527;-81
2023/07/25 10:41:31;;;;;;;7.85;5.32;;;;;;;17.69;100.00;100172.16;5075170;28;20041;-81
2023/07/25 10:43:59;;;;;;;8.85;4.75;;;;;;;17.83;100.00;100167.69;5072480;28;20032;-81
2023/07/25 10:46:30;;;;;;;8.18;5.00;;;;;;;17.93;100.00;100169.16;5102995;27;20036;-81
2023/07/25 10:48:59;;;;;;;7.93;4.63;;;;;;;18.19;100.00;100162.25;5093887;28;20534;-81
2023/07/25 10:51:49;;;;;;;6.47;5.13;;;;;;;18.21;100.00;100157.53;5087477;27;20027;-81
2023/07/25 10:54:19;;;;;;;7.40;4.82;;;;;;;18.09;100.00;100176.00;5072388;28;20489;-82
2023/07/25 10:57:06;;;;;;;9.05;4.63;;;;;;;17.80;100.00;100173.44;5067837;28;20032;-81
2023/07/25 10:59:32;;;;;;;8.15;5.35;;;;;;;17.77;100.00;100176.50;5073393;28;20059;-82
2023/07/25 11:01:58;;;;;;;5.43;4.03;;;;;;;17.89;100.00;100167.88;5091757;28;20483;-81
2023/07/25 11:04:27;;;;;;;6.95;3.38;;;;;;;18.00;100.00;100169.19;5089777;28;20027;-81
2023/07/25 11:06:58;;;;;;;5.65;3.90;;;;;;;18.14;100.00;100168.22;5092779;28;20039;-81
2023/07/25 11:09:25;;;;;;;4.97;3.95;;;;;;;18.32;100.00;100164.97;5085568;28;20067;-81
2023/07/25 11:11:54;;;;;;;9.77;4.40;;;;;;;18.47;100.00;100170.13;5095247;28;20106;-81
2023/07/25 11:14:20;;;;;;;5.75;4.03;;;;;;;18.50;100.00;100166.25;5088428;28;20027;-80